Hua Shan, China
Current Conditions -  °F | °C
As of 12:00 PM on Monday 26 Jan 2015 (Local Time) from ZLXY Reporting Station
Moderate Fog Moderate Fog  
Wind Chill: 34°   Ceiling: 7000
Heat Index: 37°   Visibility: 0.5mi
Dew Point: 30°   Wind: 4mph
Humidity: 75%   Direction: 240°WSW
Pressure: 30.27"   Gusts: NA
Location:  34.48°N, 110.08°E
Report Text: ZLXY 260400Z 24002MPS 210V300 0800 R23R/1100N R23L/1000NFGOVC070 03/M01 Q1025 NOSIG
Loading
Personal Weather Stations






























Interactive Weather Map New forecast layout! Learn more

10-Day Weather Forecast

Advertisements
Track Severe Weather on mobile